»·PEaware :: N3MR CYZP-CYYJ

N3MR :: CYZP-CYYJ

FLIGHT INFORMATION

Flight Status: Arrived
Operator: Privately registered:
United States
More flights under this callsign
Pilot: Gavin B. (19371)
Aircraft: BEECH AIRCRAFT DEBONAIR BONANZA
(BE33)
More flights by this aircraft type
Origin: CYZP Sandspit
Canada
Destination: CYYJ Victoria Intl
Canada
More flights between these airports :: More routes between these airports
Route: ZP A1 QQ V440 YYJ
File this flight plan on PilotEdge
Remarks:
Altitude:
(Current/Filed)
11,000ft
Speed:
(Current/Filed)
150kts
Departed: 16-Jun-19 01:45 AM
Arrived: 16-Jun-19 04:19 AM
Distance/Time
Traveled:
420nm/2:33
Distance/Time
To Go:
Arrived

Flight Plot

Page will automatically refresh every two minutes.

Flight plan parsing failed; only flown route is shown


Map Options




Map Legend


Flown Route
Filed Route
Departure Airport
Arrival Airport
Navaid (VOR, NDB)
Fix

Horizontal Profiles

Position Reports

Time Latitude Longitude Heading Altitude Ground
Speed
16-Jun-19 01:39 53.253357 -131.815561 325 27ft 0kts
16-Jun-19 01:40 53.253357 -131.815561 325 27ft 0kts
16-Jun-19 01:41 53.253438 -131.815655 327 26ft 6kts
16-Jun-19 01:42 53.254569 -131.814322 348 26ft 15kts
16-Jun-19 01:43 53.259464 -131.820012 143 21ft 1kts
16-Jun-19 01:44 53.244808 -131.806078 164 604ft 103kts
16-Jun-19 01:45 53.215236 -131.789230 160 1299ft 141kts
16-Jun-19 01:46 53.183180 -131.747244 128 2028ft 151kts
16-Jun-19 01:47 53.158962 -131.693030 127 2715ft 146kts
16-Jun-19 01:48 53.134604 -131.637955 127 3419ft 146kts
16-Jun-19 01:49 53.110871 -131.584292 128 4108ft 142kts
16-Jun-19 01:50 53.087640 -131.532024 128 4798ft 139kts
16-Jun-19 01:51 53.064951 -131.481022 129 5492ft 134kts
16-Jun-19 01:52 53.043048 -131.431870 130 6182ft 130kts
16-Jun-19 01:53 53.021833 -131.384375 130 6873ft 125kts
16-Jun-19 01:54 53.001305 -131.338493 132 7562ft 121kts
16-Jun-19 01:55 52.981577 -131.294459 133 8243ft 116kts
16-Jun-19 01:56 52.962735 -131.252459 134 8922ft 110kts
16-Jun-19 01:57 52.945089 -131.213170 135 9554ft 105kts
16-Jun-19 01:58 52.926360 -131.171750 134 9959ft 117kts
16-Jun-19 01:59 52.906454 -131.127607 134 10350ft 121kts
16-Jun-19 02:00 52.886138 -131.082613 134 10752ft 121kts
16-Jun-19 02:01 52.865790 -131.037768 134 11035ft 129kts
16-Jun-19 02:02 52.842197 -130.986027 133 11033ft 146kts
16-Jun-19 02:03 52.816427 -130.929406 132 11033ft 161kts
16-Jun-19 02:04 52.789061 -130.869315 132 11031ft 166kts
16-Jun-19 02:05 52.760775 -130.807359 132 11030ft 168kts
16-Jun-19 02:06 52.732446 -130.745495 132 11030ft 168kts
16-Jun-19 02:07 52.704043 -130.683632 132 11030ft 169kts
16-Jun-19 02:08 52.675775 -130.622214 132 11030ft 169kts
16-Jun-19 02:09 52.647075 -130.560008 132 11030ft 169kts
16-Jun-19 02:10 52.618599 -130.498442 132 11030ft 169kts
16-Jun-19 02:11 52.589786 -130.436347 132 10940ft 174kts
16-Jun-19 02:12 52.560507 -130.373301 132 10921ft 171kts
16-Jun-19 02:13 52.531417 -130.310855 132 10920ft 170kts
16-Jun-19 02:14 52.502808 -130.249606 132 10920ft 169kts
16-Jun-19 02:15 52.473912 -130.187892 132 10920ft 169kts
16-Jun-19 02:16 52.445154 -130.126618 132 10920ft 169kts
16-Jun-19 02:17 52.416590 -130.065892 132 10920ft 169kts
16-Jun-19 02:18 52.387308 -130.003798 132 10920ft 170kts
16-Jun-19 02:19 52.358333 -129.942504 132 10920ft 170kts
16-Jun-19 02:20 52.329332 -129.881304 132 10920ft 170kts
16-Jun-19 02:21 52.300270 -129.820122 132 10920ft 170kts
16-Jun-19 02:22 52.271125 -129.758913 132 10920ft 170kts
16-Jun-19 02:23 52.242124 -129.698152 132 10920ft 170kts
16-Jun-19 02:24 52.212690 -129.636631 132 10920ft 171kts
16-Jun-19 02:25 52.184659 -129.578180 132 10920ft 171kts
16-Jun-19 02:26 52.153793 -129.513972 132 10920ft 171kts
16-Jun-19 02:27 52.124504 -129.453195 132 10920ft 171kts
16-Jun-19 02:28 52.094743 -129.391583 132 10920ft 171kts
16-Jun-19 02:29 52.065060 -129.330285 133 10919ft 171kts
16-Jun-19 02:30 52.035388 -129.269153 132 10919ft 171kts
16-Jun-19 02:31 52.005510 -129.207748 132 10919ft 171kts
16-Jun-19 02:32 51.975361 -129.145932 132 10919ft 171kts
16-Jun-19 02:33 51.945223 -129.084289 132 10919ft 171kts
16-Jun-19 02:34 51.915337 -129.023307 132 10919ft 172kts
16-Jun-19 02:35 51.886138 -128.963813 132 11042ft 166kts
16-Jun-19 02:36 51.856580 -128.903844 132 11058ft 171kts
16-Jun-19 02:37 51.826780 -128.843469 132 11057ft 172kts
16-Jun-19 02:38 51.796649 -128.782558 132 11057ft 173kts
16-Jun-19 02:39 51.766609 -128.721979 132 11057ft 173kts
16-Jun-19 02:40 51.736318 -128.661039 132 11057ft 173kts
16-Jun-19 02:41 51.706004 -128.600199 132 11057ft 173kts
16-Jun-19 02:42 51.675665 -128.539453 132 11057ft 174kts
16-Jun-19 02:43 51.645372 -128.478943 132 11057ft 174kts
16-Jun-19 02:44 51.614934 -128.418285 132 11057ft 174kts
16-Jun-19 02:45 51.584672 -128.358124 132 11057ft 174kts
16-Jun-19 02:46 51.557050 -128.303311 133 11056ft 172kts
16-Jun-19 02:47 51.526405 -128.242677 133 11056ft 173kts
16-Jun-19 02:48 51.495792 -128.182233 133 11056ft 174kts
16-Jun-19 02:49 51.464915 -128.121412 133 11056ft 174kts
16-Jun-19 02:50 51.434197 -128.061045 133 11056ft 174kts
16-Jun-19 02:51 51.403397 -128.000659 133 11056ft 174kts
16-Jun-19 02:52 51.372516 -127.940255 133 11056ft 174kts
16-Jun-19 02:53 51.341745 -127.880214 133 11056ft 174kts
16-Jun-19 02:54 51.310679 -127.819734 132 11056ft 175kts
16-Jun-19 02:55 51.279738 -127.759641 132 11056ft 175kts
16-Jun-19 02:56 51.248540 -127.699189 132 11056ft 175kts
16-Jun-19 02:57 51.217560 -127.639302 132 11056ft 175kts
16-Jun-19 02:58 51.186333 -127.579077 132 11056ft 175kts
16-Jun-19 02:59 51.155130 -127.519041 132 11056ft 175kts
16-Jun-19 03:00 51.123851 -127.458996 132 11056ft 175kts
16-Jun-19 03:01 51.092480 -127.398917 132 11056ft 175kts
16-Jun-19 03:02 51.065491 -127.347342 133 11056ft 176kts
16-Jun-19 03:03 51.034632 -127.288498 133 11054ft 175kts
16-Jun-19 03:04 51.003249 -127.228795 133 11055ft 175kts
16-Jun-19 03:05 50.971747 -127.169004 133 11055ft 175kts
16-Jun-19 03:06 50.940047 -127.108978 133 11055ft 175kts
16-Jun-19 03:07 50.908593 -127.049555 133 11055ft 175kts
16-Jun-19 03:08 50.877400 -126.990759 133 11056ft 176kts
16-Jun-19 03:09 50.846210 -126.932103 133 11056ft 176kts
16-Jun-19 03:10 50.814214 -126.872072 133 11056ft 176kts
16-Jun-19 03:11 50.782517 -126.812737 133 11057ft 176kts
16-Jun-19 03:12 50.750779 -126.753462 133 11057ft 176kts
16-Jun-19 03:14 50.718963 -126.694180 133 11057ft 177kts
16-Jun-19 03:15 50.687169 -126.635076 133 11057ft 177kts
16-Jun-19 03:16 50.655213 -126.575805 133 11057ft 177kts
16-Jun-19 03:17 50.623351 -126.516837 133 11057ft 176kts
16-Jun-19 03:18 50.591544 -126.458129 133 11057ft 177kts
16-Jun-19 03:19 50.559470 -126.399048 133 11057ft 177kts
16-Jun-19 03:20 50.528013 -126.341232 133 11056ft 177kts
16-Jun-19 03:21 50.500951 -126.291594 133 11055ft 177kts
16-Jun-19 03:22 50.468791 -126.232736 133 11055ft 177kts
16-Jun-19 03:23 50.444688 -126.188722 134 11029ft 178kts
16-Jun-19 03:24 50.411661 -126.128590 132 10973ft 179kts
16-Jun-19 03:25 50.378991 -126.069107 133 10972ft 178kts
16-Jun-19 03:26 50.346348 -126.009871 132 10974ft 178kts
16-Jun-19 03:27 50.313797 -125.950917 133 10972ft 178kts
16-Jun-19 03:28 50.280869 -125.891456 133 10970ft 178kts
16-Jun-19 03:29 50.248341 -125.832831 133 10976ft 177kts
16-Jun-19 03:30 50.215726 -125.774189 133 10975ft 178kts
16-Jun-19 03:31 50.183060 -125.715591 132 10970ft 178kts
16-Jun-19 03:32 50.150415 -125.657178 132 10978ft 178kts
16-Jun-19 03:33 50.119403 -125.601790 132 10976ft 178kts
16-Jun-19 03:34 50.090205 -125.549751 132 10977ft 179kts
16-Jun-19 03:34 50.067847 -125.509971 132 10973ft 178kts
16-Jun-19 03:36 50.034729 -125.451178 132 10976ft 178kts
16-Jun-19 03:37 50.003288 -125.395462 132 10979ft 178kts
16-Jun-19 03:37 49.974994 -125.345471 133 10973ft 178kts
16-Jun-19 03:38 49.938875 -125.281720 133 10975ft 177kts
16-Jun-19 03:40 49.900552 -125.214285 133 10973ft 178kts
16-Jun-19 03:40 49.873561 -125.166902 133 10974ft 177kts
16-Jun-19 03:41 49.840731 -125.109338 133 10977ft 177kts
16-Jun-19 03:42 49.807932 -125.052033 133 10973ft 177kts
16-Jun-19 03:43 49.775158 -124.994851 133 11002ft 176kts
16-Jun-19 03:44 49.741273 -124.939521 137 11002ft 177kts
16-Jun-19 03:45 49.705679 -124.886698 137 11002ft 177kts
16-Jun-19 03:46 49.670020 -124.834146 137 11002ft 177kts
16-Jun-19 03:47 49.634113 -124.781365 137 11002ft 177kts
16-Jun-19 03:48 49.598363 -124.728931 137 11002ft 177kts
16-Jun-19 03:49 49.562494 -124.676432 137 11004ft 177kts
16-Jun-19 03:50 49.526570 -124.623956 138 11001ft 177kts
16-Jun-19 03:51 49.490749 -124.571756 137 11002ft 177kts
16-Jun-19 03:52 49.454534 -124.519108 137 10974ft 179kts
16-Jun-19 03:53 49.418359 -124.466602 138 10975ft 178kts
16-Jun-19 03:54 49.382170 -124.414187 137 10975ft 178kts
16-Jun-19 03:55 49.346069 -124.362025 137 10974ft 178kts
16-Jun-19 03:56 49.311026 -124.311479 138 10974ft 178kts
16-Jun-19 03:57 49.274982 -124.259626 138 10974ft 178kts
16-Jun-19 03:58 49.238871 -124.207776 138 10974ft 178kts
16-Jun-19 03:59 49.202737 -124.156006 138 10974ft 178kts
16-Jun-19 04:00 49.166320 -124.103945 138 10947ft 179kts
16-Jun-19 04:01 49.130104 -124.052270 138 10947ft 178kts
16-Jun-19 04:02 49.093835 -124.000633 138 10947ft 178kts
16-Jun-19 04:03 49.057462 -123.948957 138 10947ft 178kts
16-Jun-19 04:04 49.021118 -123.897435 138 10947ft 178kts
16-Jun-19 04:05 48.984600 -123.845805 138 10948ft 178kts
16-Jun-19 04:06 48.945843 -123.800021 170 10825ft 182kts
16-Jun-19 04:07 48.897693 -123.804364 182 10191ft 190kts
16-Jun-19 04:08 48.845276 -123.804292 181 9498ft 190kts
16-Jun-19 04:09 48.792464 -123.804065 181 8802ft 190kts
16-Jun-19 04:10 48.739777 -123.800857 162 7955ft 191kts
16-Jun-19 04:11 48.708998 -123.741276 106 6436ft 184kts
16-Jun-19 04:12 48.694281 -123.667781 103 4224ft 181kts
16-Jun-19 04:13 48.681503 -123.596353 104 2227ft 162kts
16-Jun-19 04:14 48.671319 -123.542054 104 1531ft 108kts
16-Jun-19 04:15 48.664063 -123.503940 104 978ft 86kts
16-Jun-19 04:16 48.657566 -123.469739 104 518ft 84kts
16-Jun-19 04:17 48.651504 -123.437555 103 78ft 65kts
16-Jun-19 04:18 48.647925 -123.420186 182 72ft 14kts
16-Jun-19 04:19 48.645606 -123.422652 197 69ft 12kts
16-Jun-19 04:20 48.642815 -123.422355 103 64ft 0kts
16-Jun-19 04:21 48.642815 -123.422355 103 64ft 0kts
16-Jun-19 04:22 48.642815 -123.422355 103 64ft 0kts

Navigation Log

Ident Type
Flight plan parsing failed, navigation log unavailable